Time;durP1;ratioP1;P1;durP2;ratioP2;P2;SDS_P1;SDS_P2;PMS_P1;PMS_P2;Temp;Humidity;BMP_temperature;BMP_pressure;BME280_temperature;BME280_humidity;BME280_pressure;Samples;Min_cycle;Max_cycle;Signal;HPM_P1;HPM_P2
2023/09/24 00:00:32;;;;;;;5.03;1.80;;;;;;;;;;5008145;28;20116;-69
2023/09/24 00:03:18;;;;;;;2.28;1.48;;;;;;;;;;5007834;28;20072;-71
2023/09/24 00:06:09;;;;;;;5.15;1.65;;;;;;;;;;5007754;28;20411;-70
2023/09/24 00:08:54;;;;;;;2.45;1.60;;;;;;;;;;5007804;28;20026;-71
2023/09/24 00:11:39;;;;;;;6.05;1.88;;;;;;;;;;5008098;28;20048;-71
2023/09/24 00:14:27;;;;;;;3.63;1.60;;;;;;;;;;5007963;28;20037;-71
2023/09/24 00:17:16;;;;;;;5.72;1.83;;;;;;;;;;5008160;28;20033;-70
2023/09/24 00:20:01;;;;;;;5.38;1.67;;;;;;;;;;5008150;28;20029;-71
2023/09/24 00:22:47;;;;;;;5.13;1.98;;;;;;;;;;4996154;28;20069;-70
2023/09/24 00:25:32;;;;;;;4.88;2.05;;;;;;;;;;5007953;28;20034;-69
2023/09/24 00:28:17;;;;;;;5.05;1.88;;;;;;;;;;4994184;28;20030;-70
2023/09/24 00:31:02;;;;;;;5.65;2.33;;;;;;;;;;5007939;28;20056;-69
2023/09/24 00:33:48;;;;;;;4.90;1.48;;;;;;;;;;5007979;28;20037;-79
2023/09/24 00:36:33;;;;;;;6.35;2.75;;;;;;;;;;4993948;28;20548;-69
2023/09/24 00:39:19;;;;;;;6.15;1.60;;;;;;;;;;4997998;28;20389;-71
2023/09/24 00:42:05;;;;;;;5.53;2.03;;;;;;;;;;5011705;28;20038;-72
2023/09/24 00:44:51;;;;;;;5.55;1.98;;;;;;;;;;5011613;28;20038;-69
2023/09/24 00:47:37;;;;;;;5.00;1.92;;;;;;;;;;5013020;28;20073;-70
2023/09/24 00:50:32;;;;;;;5.43;2.30;;;;;;;;;;5011845;28;20104;-70
2023/09/24 00:53:18;;;;;;;4.60;2.03;;;;;;;;;;4999782;28;20393;-69
2023/09/24 00:56:04;;;;;;;6.82;2.33;;;;;;;;;;5019214;28;20038;-69
2023/09/24 00:58:53;;;;;;;7.60;2.70;;;;;;;;;;5011229;28;20546;-70
2023/09/24 01:01:38;;;;;;;4.93;2.37;;;;;;;;;;5011211;28;20393;-71
2023/09/24 01:04:23;;;;;;;5.90;2.15;;;;;;;;;;5011378;28;20045;-70
2023/09/24 01:07:08;;;;;;;7.00;3.03;;;;;;;;;;5010742;28;20037;-70
2023/09/24 01:09:54;;;;;;;3.78;1.88;;;;;;;;;;5011244;28;20185;-73
2023/09/24 01:12:39;;;;;;;3.85;2.25;;;;;;;;;;5011003;28;20034;-73
2023/09/24 01:15:25;;;;;;;3.83;1.55;;;;;;;;;;4996267;28;20038;-75
2023/09/24 01:18:11;;;;;;;3.65;1.35;;;;;;;;;;5011239;28;20215;-74
2023/09/24 01:20:56;;;;;;;6.03;1.92;;;;;;;;;;5011059;28;20021;-74
2023/09/24 01:23:45;;;;;;;3.25;2.42;;;;;;;;;;4997181;28;20056;-74
2023/09/24 01:26:31;;;;;;;3.17;1.42;;;;;;;;;;5010971;28;20076;-74
2023/09/24 01:29:16;;;;;;;5.72;2.35;;;;;;;;;;5010636;28;20045;-70
2023/09/24 01:32:03;;;;;;;2.72;1.33;;;;;;;;;;5010416;28;20137;-73
2023/09/24 01:34:49;;;;;;;2.05;1.42;;;;;;;;;;5010527;28;20037;-75
2023/09/24 01:37:38;;;;;;;5.05;1.95;;;;;;;;;;5010928;28;20429;-76
2023/09/24 01:40:24;;;;;;;4.35;1.73;;;;;;;;;;4997501;28;20443;-74
2023/09/24 01:43:09;;;;;;;9.75;2.30;;;;;;;;;;5012316;28;20033;-74
2023/09/24 01:45:54;;;;;;;6.20;1.98;;;;;;;;;;5010637;28;20083;-73
2023/09/24 01:48:39;;;;;;;3.88;1.90;;;;;;;;;;5010207;28;20585;-74
2023/09/24 01:51:24;;;;;;;4.50;1.70;;;;;;;;;;4996896;28;20041;-78
2023/09/24 01:54:10;;;;;;;2.05;1.33;;;;;;;;;;5020154;28;20044;-79
2023/09/24 01:56:57;;;;;;;3.50;2.13;;;;;;;;;;5011099;28;20058;-79
2023/09/24 01:59:43;;;;;;;3.33;2.03;;;;;;;;;;5010360;28;20427;-79
2023/09/24 02:02:33;;;;;;;2.67;1.48;;;;;;;;;;5010695;28;20030;-79
2023/09/24 02:05:19;;;;;;;2.70;1.42;;;;;;;;;;5010155;28;20026;-77
2023/09/24 02:08:06;;;;;;;3.67;1.90;;;;;;;;;;4996404;28;20045;-72
2023/09/24 02:10:51;;;;;;;7.65;1.75;;;;;;;;;;5010178;28;20042;-70
2023/09/24 02:13:36;;;;;;;4.93;1.70;;;;;;;;;;5009624;28;20034;-70
2023/09/24 02:16:22;;;;;;;3.60;1.60;;;;;;;;;;5009981;28;20717;-70
2023/09/24 02:19:08;;;;;;;2.60;1.83;;;;;;;;;;5010125;28;20026;-70
2023/09/24 02:21:53;;;;;;;2.78;2.08;;;;;;;;;;5009429;28;20412;-69
2023/09/24 02:24:40;;;;;;;3.30;1.85;;;;;;;;;;5009788;28;20037;-78
2023/09/24 02:27:25;;;;;;;2.72;1.70;;;;;;;;;;5009494;28;20462;-80
2023/09/24 02:30:11;;;;;;;3.35;1.60;;;;;;;;;;5010066;28;20032;-79
2023/09/24 02:32:57;;;;;;;2.70;1.70;;;;;;;;;;4996437;28;20088;-78
2023/09/24 02:35:43;;;;;;;3.88;1.85;;;;;;;;;;5009772;28;20076;-79
2023/09/24 02:38:28;;;;;;;6.53;3.38;;;;;;;;;;4996857;28;20113;-79
2023/09/24 02:41:13;;;;;;;3.10;2.15;;;;;;;;;;5009931;28;20026;-80
2023/09/24 02:44:01;;;;;;;3.25;1.80;;;;;;;;;;5000443;28;20056;-74
2023/09/24 02:46:46;;;;;;;5.35;1.80;;;;;;;;;;5010840;28;20462;-68
2023/09/24 02:49:32;;;;;;;2.88;1.52;;;;;;;;;;5003206;28;20117;-71
2023/09/24 02:52:18;;;;;;;4.32;1.60;;;;;;;;;;5008853;28;20049;-70
2023/09/24 02:55:04;;;;;;;2.95;1.73;;;;;;;;;;5010558;28;20034;-69
2023/09/24 02:57:52;;;;;;;7.22;1.80;;;;;;;;;;5008769;28;20484;-70
2023/09/24 03:00:41;;;;;;;1.70;1.55;;;;;;;;;;5008513;28;20515;-77
2023/09/24 03:03:26;;;;;;;3.45;1.38;;;;;;;;;;5009247;28;20100;-73
2023/09/24 03:06:13;;;;;;;4.13;1.70;;;;;;;;;;5008942;28;20048;-75
2023/09/24 03:08:58;;;;;;;2.15;1.58;;;;;;;;;;5009403;28;20149;-72
2023/09/24 03:11:44;;;;;;;2.30;1.75;;;;;;;;;;5004450;28;20504;-75
2023/09/24 03:14:29;;;;;;;5.25;1.95;;;;;;;;;;5009133;28;20034;-74
2023/09/24 03:17:14;;;;;;;3.00;1.90;;;;;;;;;;5008816;28;20061;-73
2023/09/24 03:20:00;;;;;;;5.75;1.80;;;;;;;;;;5008940;28;20100;-68
2023/09/24 03:22:53;;;;;;;5.65;2.40;;;;;;;;;;5008553;28;20432;-70
2023/09/24 03:25:40;;;;;;;4.28;1.80;;;;;;;;;;5005676;28;20033;-70
2023/09/24 03:28:25;;;;;;;3.08;1.85;;;;;;;;;;5006982;28;20026;-70
2023/09/24 03:31:14;;;;;;;4.25;1.70;;;;;;;;;;5007924;28;20388;-70
2023/09/24 03:33:59;;;;;;;3.03;1.83;;;;;;;;;;5008361;28;20030;-69
2023/09/24 03:36:45;;;;;;;5.25;2.00;;;;;;;;;;5008527;28;20040;-69
2023/09/24 03:39:30;;;;;;;7.68;2.08;;;;;;;;;;5008405;28;20108;-78
2023/09/24 03:42:15;;;;;;;5.97;1.63;;;;;;;;;;5008464;28;20033;-77
2023/09/24 03:45:01;;;;;;;2.97;1.60;;;;;;;;;;4995314;28;20448;-77
2023/09/24 03:47:46;;;;;;;3.80;1.77;;;;;;;;;;5008873;28;20117;-77
2023/09/24 03:50:31;;;;;;;7.07;1.70;;;;;;;;;;4995903;28;20544;-77
2023/09/24 03:53:18;;;;;;;3.80;2.17;;;;;;;;;;4997456;28;20068;-77
2023/09/24 03:56:05;;;;;;;3.15;1.50;;;;;;;;;;5012004;28;20072;-69
2023/09/24 03:58:50;;;;;;;3.88;1.50;;;;;;;;;;5000421;28;20037;-74
2023/09/24 04:01:40;;;;;;;5.70;1.95;;;;;;;;;;5008712;28;20025;-74
2023/09/24 04:04:26;;;;;;;6.32;2.42;;;;;;;;;;5008398;28;20029;-74
2023/09/24 04:07:12;;;;;;;7.85;1.70;;;;;;;;;;5008134;28;20032;-73
2023/09/24 04:09:57;;;;;;;3.17;1.65;;;;;;;;;;4994116;28;20542;-74
2023/09/24 04:12:43;;;;;;;2.70;1.48;;;;;;;;;;5009772;28;20099;-74
2023/09/24 04:15:29;;;;;;;2.85;1.90;;;;;;;;;;4999822;28;20042;-72
2023/09/24 04:18:14;;;;;;;7.03;2.40;;;;;;;;;;5012215;28;20034;-79
2023/09/24 04:21:00;;;;;;;4.88;1.60;;;;;;;;;;4998986;28;20033;-77
2023/09/24 04:23:46;;;;;;;1.65;1.40;;;;;;;;;;4998049;28;20470;-76
2023/09/24 04:26:31;;;;;;;4.60;1.83;;;;;;;;;;4998918;28;20088;-78
2023/09/24 04:29:17;;;;;;;8.55;1.88;;;;;;;;;;4998708;28;20425;-78
2023/09/24 04:32:02;;;;;;;5.03;1.95;;;;;;;;;;5011810;28;20434;-77
2023/09/24 04:34:49;;;;;;;3.25;1.58;;;;;;;;;;4998346;28;20072;-70
2023/09/24 04:37:36;;;;;;;5.13;1.45;;;;;;;;;;5011951;28;20710;-73
2023/09/24 04:40:23;;;;;;;4.75;1.63;;;;;;;;;;5011484;28;20088;-74
2023/09/24 04:43:11;;;;;;;2.45;1.52;;;;;;;;;;5011717;28;20065;-74
2023/09/24 04:45:56;;;;;;;3.83;1.67;;;;;;;;;;5011802;28;20022;-72
2023/09/24 04:48:41;;;;;;;7.30;2.33;;;;;;;;;;5017189;28;20066;-73
2023/09/24 04:51:27;;;;;;;3.90;2.08;;;;;;;;;;5002890;28;20109;-70
2023/09/24 04:54:12;;;;;;;3.35;1.50;;;;;;;;;;5014259;28;20037;-71
2023/09/24 04:56:58;;;;;;;3.97;2.13;;;;;;;;;;5011416;28;20033;-71
2023/09/24 04:59:43;;;;;;;3.38;1.90;;;;;;;;;;5011063;28;20380;-70
2023/09/24 05:02:28;;;;;;;5.90;2.55;;;;;;;;;;5011192;28;20034;-70
2023/09/24 05:05:15;;;;;;;2.90;1.48;;;;;;;;;;4997975;28;20543;-68
2023/09/24 05:08:02;;;;;;;3.08;1.73;;;;;;;;;;5011030;28;20088;-70
2023/09/24 05:10:49;;;;;;;4.85;1.90;;;;;;;;;;5011287;28;20038;-67
2023/09/24 05:13:35;;;;;;;4.07;1.80;;;;;;;;;;5011007;28;20085;-71
2023/09/24 05:16:21;;;;;;;3.58;1.55;;;;;;;;;;5010829;28;20133;-69
2023/09/24 05:19:07;;;;;;;5.88;2.20;;;;;;;;;;5011063;28;20477;-70
2023/09/24 05:21:52;;;;;;;5.07;1.85;;;;;;;;;;5009927;28;20469;-70
2023/09/24 05:24:37;;;;;;;2.28;1.63;;;;;;;;;;5009282;28;20720;-69
2023/09/24 05:27:22;;;;;;;5.15;1.70;;;;;;;;;;4994232;28;20030;-68
2023/09/24 05:30:08;;;;;;;2.63;1.48;;;;;;;;;;5006181;28;20042;-74
2023/09/24 05:32:54;;;;;;;5.40;1.90;;;;;;;;;;4997002;28;20033;-78
2023/09/24 05:35:39;;;;;;;4.90;1.70;;;;;;;;;;5011362;28;20034;-75
2023/09/24 05:38:26;;;;;;;3.55;1.90;;;;;;;;;;5011447;28;20030;-76
2023/09/24 05:41:11;;;;;;;3.42;1.70;;;;;;;;;;4997659;28;20065;-77
2023/09/24 05:44:01;;;;;;;7.07;2.30;;;;;;;;;;4997796;28;20021;-77
2023/09/24 05:46:46;;;;;;;4.38;1.83;;;;;;;;;;5018391;28;20029;-77
2023/09/24 05:49:31;;;;;;;2.92;1.60;;;;;;;;;;5001889;28;20040;-68
2023/09/24 05:52:16;;;;;;;4.05;1.58;;;;;;;;;;4996467;28;20452;-69
2023/09/24 05:55:02;;;;;;;5.28;1.83;;;;;;;;;;5016137;28;20132;-68
2023/09/24 05:57:47;;;;;;;3.70;1.90;;;;;;;;;;5010190;28;20025;-70
2023/09/24 06:00:35;;;;;;;3.63;1.98;;;;;;;;;;5010250;28;20492;-69
2023/09/24 06:03:21;;;;;;;5.07;2.58;;;;;;;;;;4996702;28;20037;-69
2023/09/24 06:06:09;;;;;;;7.25;2.97;;;;;;;;;;5009934;28;20377;-68
2023/09/24 06:08:54;;;;;;;4.50;2.00;;;;;;;;;;5010095;28;20030;-69
2023/09/24 06:11:39;;;;;;;7.32;2.83;;;;;;;;;;4996926;28;20044;-70
2023/09/24 06:14:25;;;;;;;5.97;2.40;;;;;;;;;;4989018;28;20305;-69
2023/09/24 06:17:11;;;;;;;4.88;1.92;;;;;;;;;;5010033;28;20044;-71
2023/09/24 06:19:56;;;;;;;4.70;2.25;;;;;;;;;;5009226;28;20488;-71
2023/09/24 06:22:42;;;;;;;3.78;2.38;;;;;;;;;;4996312;28;20077;-71
2023/09/24 06:25:27;;;;;;;6.55;2.28;;;;;;;;;;4994588;28;20076;-74
2023/09/24 06:28:12;;;;;;;5.00;2.35;;;;;;;;;;4995644;28;20531;-74
2023/09/24 06:30:58;;;;;;;4.38;2.78;;;;;;;;;;4998335;28;20430;-74
2023/09/24 06:33:43;;;;;;;3.65;2.38;;;;;;;;;;5009667;28;20083;-73
2023/09/24 06:36:28;;;;;;;3.53;2.30;;;;;;;;;;5009076;28;20489;-74
2023/09/24 06:39:15;;;;;;;4.43;2.30;;;;;;;;;;5009761;28;20040;-73
2023/09/24 06:42:00;;;;;;;3.00;2.00;;;;;;;;;;5009238;28;20450;-74
2023/09/24 06:44:45;;;;;;;8.32;2.28;;;;;;;;;;4999368;28;20483;-78
2023/09/24 06:47:31;;;;;;;2.97;1.92;;;;;;;;;;5011093;28;20045;-77
2023/09/24 06:50:16;;;;;;;4.90;2.42;;;;;;;;;;5009888;28;20108;-78
2023/09/24 06:53:01;;;;;;;5.40;2.28;;;;;;;;;;4984777;28;20021;-78
2023/09/24 06:55:47;;;;;;;2.92;2.03;;;;;;;;;;5012834;28;20038;-78
2023/09/24 06:58:33;;;;;;;3.85;2.10;;;;;;;;;;5009825;28;20041;-78
2023/09/24 07:01:18;;;;;;;4.63;2.30;;;;;;;;;;5009428;28;20044;-69
2023/09/24 07:04:07;;;;;;;5.38;2.10;;;;;;;;;;5009164;28;20509;-70
2023/09/24 07:06:53;;;;;;;3.25;2.20;;;;;;;;;;4995299;28;20033;-70
2023/09/24 07:09:38;;;;;;;2.65;1.90;;;;;;;;;;5008910;28;20420;-69
2023/09/24 07:12:23;;;;;;;3.83;1.90;;;;;;;;;;5008799;28;20448;-69
2023/09/24 07:15:09;;;;;;;6.45;2.33;;;;;;;;;;5008383;28;20034;-72
2023/09/24 07:17:55;;;;;;;4.60;2.28;;;;;;;;;;5008484;28;20108;-70
2023/09/24 07:20:46;;;;;;;6.10;1.85;;;;;;;;;;4998629;28;20042;-79
2023/09/24 07:23:32;;;;;;;4.38;2.00;;;;;;;;;;5008577;28;20124;-71
2023/09/24 07:26:17;;;;;;;7.13;2.95;;;;;;;;;;5007657;28;20050;-71
2023/09/24 07:29:03;;;;;;;6.78;1.92;;;;;;;;;;5008352;28;20044;-69
2023/09/24 07:31:48;;;;;;;3.30;1.80;;;;;;;;;;5008755;28;20036;-70
2023/09/24 07:34:33;;;;;;;3.13;1.90;;;;;;;;;;5008307;28;20034;-71
2023/09/24 07:37:19;;;;;;;3.28;1.65;;;;;;;;;;4994323;28;20041;-71
2023/09/24 07:40:05;;;;;;;3.42;1.60;;;;;;;;;;5009115;28;20042;-72
2023/09/24 07:42:50;;;;;;;3.50;2.03;;;;;;;;;;5008286;28;20040;-71
2023/09/24 07:45:36;;;;;;;9.82;3.25;;;;;;;;;;4994693;28;20042;-71
2023/09/24 07:48:21;;;;;;;15.88;2.85;;;;;;;;;;5015456;28;20413;-69
2023/09/24 07:51:06;;;;;;;4.20;2.30;;;;;;;;;;5008460;28;20041;-69
2023/09/24 07:53:52;;;;;;;4.13;1.90;;;;;;;;;;5014087;28;20037;-69
2023/09/24 07:56:42;;;;;;;4.28;1.80;;;;;;;;;;5008431;28;20421;-76
2023/09/24 07:59:27;;;;;;;4.70;2.40;;;;;;;;;;4994457;28;20054;-74
2023/09/24 08:02:13;;;;;;;4.50;2.72;;;;;;;;;;5008363;28;20143;-76
2023/09/24 08:04:58;;;;;;;4.75;2.28;;;;;;;;;;5008095;28;20368;-74
2023/09/24 08:07:43;;;;;;;6.28;2.67;;;;;;;;;;5008172;28;20068;-73
2023/09/24 08:10:29;;;;;;;6.18;2.75;;;;;;;;;;5007863;28;20074;-73
2023/09/24 08:13:14;;;;;;;4.63;2.33;;;;;;;;;;5007839;28;20041;-72
2023/09/24 08:15:59;;;;;;;5.07;1.75;;;;;;;;;;4994175;28;20030;-72
2023/09/24 08:18:44;;;;;;;5.15;2.05;;;;;;;;;;5008157;28;20496;-66
2023/09/24 08:21:30;;;;;;;4.20;2.17;;;;;;;;;;5007851;28;20120;-67
2023/09/24 08:24:15;;;;;;;6.30;2.03;;;;;;;;;;5007611;28;20073;-68
2023/09/24 08:27:00;;;;;;;4.18;2.08;;;;;;;;;;5007778;28;20417;-67
2023/09/24 08:29:45;;;;;;;3.30;1.85;;;;;;;;;;5000643;28;20025;-68
2023/09/24 08:32:31;;;;;;;6.00;2.33;;;;;;;;;;5007701;28;20050;-69
2023/09/24 08:35:16;;;;;;;5.10;1.70;;;;;;;;;;5007686;28;20044;-72
2023/09/24 08:38:01;;;;;;;3.83;1.70;;;;;;;;;;5007783;28;20056;-74
2023/09/24 08:40:46;;;;;;;3.70;2.28;;;;;;;;;;5007547;28;20052;-74
2023/09/24 08:43:32;;;;;;;3.05;1.80;;;;;;;;;;5007769;28;20033;-75
2023/09/24 08:46:18;;;;;;;3.75;2.03;;;;;;;;;;4985504;28;20584;-74
2023/09/24 08:49:04;;;;;;;5.18;2.13;;;;;;;;;;5007395;28;20022;-73
2023/09/24 08:51:50;;;;;;;3.63;2.05;;;;;;;;;;5007239;28;20030;-71
2023/09/24 08:54:37;;;;;;;2.95;1.40;;;;;;;;;;5013254;28;20038;-70
2023/09/24 08:57:22;;;;;;;5.03;1.90;;;;;;;;;;5007594;28;20109;-69
2023/09/24 09:00:09;;;;;;;7.43;2.20;;;;;;;;;;5010828;28;20198;-68
2023/09/24 09:02:55;;;;;;;3.75;1.73;;;;;;;;;;5011206;28;20370;-68
2023/09/24 09:05:42;;;;;;;4.47;1.80;;;;;;;;;;5011363;28;20057;-70
2023/09/24 09:08:27;;;;;;;5.43;2.25;;;;;;;;;;5011359;28;20049;-69
2023/09/24 09:11:12;;;;;;;6.63;2.00;;;;;;;;;;5010456;28;20477;-82
2023/09/24 09:13:57;;;;;;;2.97;1.65;;;;;;;;;;5010929;28;20465;-78
2023/09/24 09:16:52;;;;;;;3.28;1.92;;;;;;;;;;5011226;28;20041;-79
2023/09/24 09:19:52;;;;;;;5.93;2.03;;;;;;;;;;5011219;28;20076;-79
2023/09/24 09:22:45;;;;;;;3.45;2.05;;;;;;;;;;5014253;28;20034;-78
2023/09/24 09:25:30;;;;;;;6.18;2.10;;;;;;;;;;5010686;28;20121;-80
2023/09/24 09:28:18;;;;;;;4.40;1.85;;;;;;;;;;5010609;28;20088;-80
2023/09/24 09:31:11;;;;;;;4.17;2.13;;;;;;;;;;4996639;28;20035;-79
2023/09/24 09:33:56;;;;;;;4.30;2.17;;;;;;;;;;5010613;28;20026;-78
2023/09/24 09:36:41;;;;;;;5.85;2.00;;;;;;;;;;5010542;28;20052;-78
2023/09/24 09:39:26;;;;;;;5.35;1.90;;;;;;;;;;5010494;28;20056;-78
2023/09/24 09:42:15;;;;;;;4.20;1.92;;;;;;;;;;5010176;28;20049;-81
2023/09/24 09:45:01;;;;;;;;;;;;;;;;;;5008646;28;20029;-80
2023/09/24 09:47:49;;;;;;;6.95;1.80;;;;;;;;;;5010754;28;20020;-70
2023/09/24 09:50:38;;;;;;;4.13;2.17;;;;;;;;;;5010421;28;20044;-71
2023/09/24 09:53:24;;;;;;;3.97;1.85;;;;;;;;;;5013221;28;20111;-69
2023/09/24 09:56:10;;;;;;;3.30;1.70;;;;;;;;;;5009982;28;20180;-71
2023/09/24 09:58:56;;;;;;;3.55;2.00;;;;;;;;;;5010072;28;20030;-70
2023/09/24 10:01:41;;;;;;;3.13;1.92;;;;;;;;;;5010257;28;20117;-71
2023/09/24 10:04:29;;;;;;;4.95;1.80;;;;;;;;;;5010088;28;20038;-74
2023/09/24 10:07:14;;;;;;;4.93;1.70;;;;;;;;;;5009896;28;20022;-73
2023/09/24 10:10:00;;;;;;;3.58;1.88;;;;;;;;;;5007897;28;20457;-73
2023/09/24 10:12:45;;;;;;;2.90;1.73;;;;;;;;;;5007484;28;20053;-73
2023/09/24 10:15:31;;;;;;;3.95;1.92;;;;;;;;;;4995167;28;20046;-73
2023/09/24 10:18:19;;;;;;;3.83;2.10;;;;;;;;;;5007191;28;20090;-72
2023/09/24 10:21:05;;;;;;;4.43;1.63;;;;;;;;;;4993575;28;20029;-71
2023/09/24 10:23:50;;;;;;;3.08;1.85;;;;;;;;;;5008524;28;20088;-72
2023/09/24 10:26:48;;;;;;;3.45;1.98;;;;;;;;;;5009121;28;20061;-75
2023/09/24 10:29:46;;;;;;;5.07;2.38;;;;;;;;;;5000810;28;20084;-61
2023/09/24 10:32:41;;;;;;;5.97;1.98;;;;;;;;;;5009430;28;20029;-76
2023/09/24 10:35:26;;;;;;;5.60;2.08;;;;;;;;;;4995752;28;20393;-77
2023/09/24 10:38:12;;;;;;;5.55;2.42;;;;;;;;;;4995737;28;20034;-78
2023/09/24 10:41:03;;;;;;;4.85;1.83;;;;;;;;;;5009316;28;20424;-71
2023/09/24 10:44:07;;;;;;;6.15;2.22;;;;;;;;;;5009418;28;20382;-71
2023/09/24 10:46:52;;;;;;;4.55;2.05;;;;;;;;;;5016242;28;20038;-68
2023/09/24 10:49:37;;;;;;;2.40;1.63;;;;;;;;;;5001248;28;20473;-70
2023/09/24 10:52:23;;;;;;;3.45;1.65;;;;;;;;;;5009161;28;21195;-68
2023/09/24 10:55:08;;;;;;;3.13;1.70;;;;;;;;;;5014758;28;20042;-69
2023/09/24 10:57:54;;;;;;;4.63;2.13;;;;;;;;;;5008339;28;20385;-67
2023/09/24 11:00:41;;;;;;;3.55;1.90;;;;;;;;;;5008914;28;20037;-68
2023/09/24 11:03:26;;;;;;;3.08;1.80;;;;;;;;;;5008979;28;20069;-79
2023/09/24 11:06:11;;;;;;;2.95;1.60;;;;;;;;;;5007548;28;20556;-79
2023/09/24 11:09:19;;;;;;;2.65;1.38;;;;;;;;;;5009148;28;20042;-78
2023/09/24 11:12:07;;;;;;;9.15;5.22;;;;;;;;;;5009266;28;20452;-76
2023/09/24 11:14:53;;;;;;;7.63;4.78;;;;;;;;;;5008728;28;20034;-78
2023/09/24 11:17:39;;;;;;;5.60;2.45;;;;;;;;;;5008765;28;20045;-69
2023/09/24 11:20:25;;;;;;;5.95;2.45;;;;;;;;;;5008881;28;20034;-70
2023/09/24 11:23:11;;;;;;;4.38;1.90;;;;;;;;;;5007647;28;20088;-70
2023/09/24 11:25:56;;;;;;;5.03;1.77;;;;;;;;;;5008133;28;20543;-70
2023/09/24 11:28:41;;;;;;;3.22;2.03;;;;;;;;;;5008451;28;20061;-70
2023/09/24 11:31:26;;;;;;;2.13;1.48;;;;;;;;;;5008699;28;20034;-70
2023/09/24 11:34:20;;;;;;;3.10;1.65;;;;;;;;;;4995084;28;20037;-71
2023/09/24 11:37:06;;;;;;;4.00;2.28;;;;;;;;;;5007860;28;20072;-69
2023/09/24 11:39:51;;;;;;;8.50;5.22;;;;;;;;;;5007744;28;20041;-77
2023/09/24 11:42:42;;;;;;;4.35;2.00;;;;;;;;;;5008418;28;20065;-78
2023/09/24 11:45:38;;;;;;;2.67;1.60;;;;;;;;;;5008250;28;20107;-78
2023/09/24 11:48:25;;;;;;;2.22;1.30;;;;;;;;;;5016134;28;20099;-77
2023/09/24 11:51:10;;;;;;;4.95;1.98;;;;;;;;;;5008177;28;20026;-77
2023/09/24 11:53:56;;;;;;;3.95;1.95;;;;;;;;;;5013650;28;20079;-77
2023/09/24 11:56:41;;;;;;;5.65;1.73;;;;;;;;;;5007953;28;20049;-69
2023/09/24 11:59:29;;;;;;;2.17;1.48;;;;;;;;;;5007167;28;20488;-71
2023/09/24 12:02:14;;;;;;;3.78;1.83;;;;;;;;;;5007815;28;20033;-72
2023/09/24 12:05:00;;;;;;;3.38;1.90;;;;;;;;;;5008027;28;20037;-72
2023/09/24 12:07:47;;;;;;;3.97;1.50;;;;;;;;;;5007867;28;20079;-73
2023/09/24 12:10:33;;;;;;;3.63;1.98;;;;;;;;;;4994233;28;20718;-73
2023/09/24 12:13:19;;;;;;;2.78;1.50;;;;;;;;;;5007538;28;20381;-69
2023/09/24 12:16:04;;;;;;;4.28;1.55;;;;;;;;;;5007427;28;20030;-69
2023/09/24 12:18:49;;;;;;;2.38;1.60;;;;;;;;;;5007684;28;20068;-69
2023/09/24 12:21:34;;;;;;;5.32;1.90;;;;;;;;;;5007881;28;20442;-68
2023/09/24 12:24:20;;;;;;;5.55;2.05;;;;;;;;;;5007098;28;20447;-69
2023/09/24 12:27:05;;;;;;;4.40;2.13;;;;;;;;;;5019834;28;20083;-68
2023/09/24 12:29:51;;;;;;;4.82;1.85;;;;;;;;;;5008011;28;20034;-68
2023/09/24 12:32:36;;;;;;;3.65;1.80;;;;;;;;;;4995973;28;20030;-68
2023/09/24 12:35:22;;;;;;;3.97;2.20;;;;;;;;;;5011519;28;20034;-68
2023/09/24 12:38:07;;;;;;;3.30;1.60;;;;;;;;;;5011683;28;20108;-68
2023/09/24 12:40:52;;;;;;;3.63;1.50;;;;;;;;;;5010946;28;20026;-69
2023/09/24 12:43:38;;;;;;;4.28;1.75;;;;;;;;;;5011350;28;20121;-69
2023/09/24 12:46:23;;;;;;;10.65;6.55;;;;;;;;;;5014618;28;20469;-70
2023/09/24 12:49:08;;;;;;;5.63;1.60;;;;;;;;;;5013389;28;20065;-71
2023/09/24 12:51:54;;;;;;;7.25;1.95;;;;;;;;;;5011238;28;20063;-70
2023/09/24 12:54:39;;;;;;;3.70;1.90;;;;;;;;;;5002950;28;20038;-68
2023/09/24 12:57:24;;;;;;;5.68;2.15;;;;;;;;;;5011430;28;20037;-68
2023/09/24 13:00:10;;;;;;;3.85;1.77;;;;;;;;;;5011545;28;20030;-69
2023/09/24 13:02:55;;;;;;;3.53;1.38;;;;;;;;;;5011112;28;20241;-69
2023/09/24 13:05:41;;;;;;;3.88;2.20;;;;;;;;;;5011390;28;20440;-69
2023/09/24 13:08:26;;;;;;;7.40;2.38;;;;;;;;;;5011035;28;20113;-76
2023/09/24 13:11:12;;;;;;;5.07;2.40;;;;;;;;;;5011207;28;20378;-68
2023/09/24 13:13:57;;;;;;;3.78;1.70;;;;;;;;;;5011023;28;20505;-67
2023/09/24 13:16:43;;;;;;;3.85;2.05;;;;;;;;;;5010860;28;20432;-70
2023/09/24 13:19:29;;;;;;;2.40;1.65;;;;;;;;;;5008973;28;20096;-71
2023/09/24 13:22:14;;;;;;;3.40;2.08;;;;;;;;;;5008026;28;20431;-69
2023/09/24 13:25:00;;;;;;;2.88;1.70;;;;;;;;;;5007685;28;20072;-69
2023/09/24 13:27:45;;;;;;;4.07;1.85;;;;;;;;;;5009791;28;20022;-68
2023/09/24 13:30:32;;;;;;;2.92;1.70;;;;;;;;;;5009343;28;20042;-74
2023/09/24 13:33:17;;;;;;;3.00;1.65;;;;;;;;;;5011255;28;20504;-74
2023/09/24 13:36:03;;;;;;;3.33;1.60;;;;;;;;;;5010811;28;20030;-75
2023/09/24 13:38:48;;;;;;;3.38;2.15;;;;;;;;;;4997444;28;20037;-75
2023/09/24 13:41:33;;;;;;;4.53;1.73;;;;;;;;;;5011151;28;20037;-74
2023/09/24 13:44:19;;;;;;;3.70;1.77;;;;;;;;;;5010935;28;20038;-74
2023/09/24 13:47:04;;;;;;;4.25;1.90;;;;;;;;;;5003485;28;20025;-70
2023/09/24 13:49:49;;;;;;;3.33;1.67;;;;;;;;;;5010096;28;20049;-68
2023/09/24 13:52:35;;;;;;;5.35;2.28;;;;;;;;;;5010071;28;20065;-67
2023/09/24 13:55:20;;;;;;;6.25;2.33;;;;;;;;;;4998642;28;20063;-69
2023/09/24 13:58:05;;;;;;;4.03;1.70;;;;;;;;;;5010412;28;20175;-69
2023/09/24 14:00:51;;;;;;;5.85;2.10;;;;;;;;;;5010314;28;20083;-68
2023/09/24 14:03:37;;;;;;;3.63;2.25;;;;;;;;;;4997569;28;20042;-69
2023/09/24 14:06:22;;;;;;;3.83;1.80;;;;;;;;;;5010074;28;20041;-74
2023/09/24 14:12:19;;;;;;;3.05;1.60;;;;;;;;;;5010057;28;20038;-73
2023/09/24 14:15:05;;;;;;;4.13;1.75;;;;;;;;;;5009875;28;20026;-74
2023/09/24 14:17:51;;;;;;;2.67;1.58;;;;;;;;;;5010039;28;20040;-74
2023/09/24 14:20:36;;;;;;;3.58;1.92;;;;;;;;;;4996319;28;20029;-75
2023/09/24 14:23:21;;;;;;;2.83;1.63;;;;;;;;;;5009794;28;20094;-74
2023/09/24 14:26:09;;;;;;;4.82;1.95;;;;;;;;;;4995733;28;20408;-75
2023/09/24 14:28:57;;;;;;;3.53;1.70;;;;;;;;;;5009950;28;20037;-74
2023/09/24 14:31:42;;;;;;;3.75;1.98;;;;;;;;;;5010483;28;20041;-75
2023/09/24 14:34:27;;;;;;;6.18;2.25;;;;;;;;;;5010138;28;20038;-74
2023/09/24 14:37:13;;;;;;;2.45;1.50;;;;;;;;;;5009951;28;20456;-76
2023/09/24 14:39:58;;;;;;;3.85;1.60;;;;;;;;;;5009852;28;20477;-80
2023/09/24 14:42:44;;;;;;;3.10;1.73;;;;;;;;;;5009598;28;20036;-74
2023/09/24 14:45:29;;;;;;;2.42;1.50;;;;;;;;;;5009608;28;20045;-79
2023/09/24 14:48:14;;;;;;;2.63;1.92;;;;;;;;;;5016326;28;20077;-79
2023/09/24 14:51:00;;;;;;;5.10;2.28;;;;;;;;;;5008882;28;20100;-78
2023/09/24 14:53:46;;;;;;;3.42;1.90;;;;;;;;;;5014299;28;20022;-79
2023/09/24 14:56:32;;;;;;;3.90;1.90;;;;;;;;;;5008709;28;20044;-79
2023/09/24 14:59:17;;;;;;;5.22;2.22;;;;;;;;;;5008665;28;20048;-71
2023/09/24 15:02:03;;;;;;;3.75;1.85;;;;;;;;;;5008736;28;20050;-69
2023/09/24 15:04:52;;;;;;;3.53;1.92;;;;;;;;;;5009501;28;20548;-68
2023/09/24 15:07:37;;;;;;;3.97;2.53;;;;;;;;;;5009358;28;20289;-69
2023/09/24 15:10:22;;;;;;;4.68;2.28;;;;;;;;;;5009342;28;20037;-70
2023/09/24 15:13:08;;;;;;;5.57;2.20;;;;;;;;;;5008725;28;20033;-69
2023/09/24 15:15:53;;;;;;;3.50;1.92;;;;;;;;;;5009109;28;20030;-71
2023/09/24 15:18:38;;;;;;;3.08;1.67;;;;;;;;;;5008664;28;20519;-80
2023/09/24 15:21:24;;;;;;;2.67;1.85;;;;;;;;;;5008984;28;20092;-69
2023/09/24 15:24:11;;;;;;;4.50;1.60;;;;;;;;;;4983485;28;20133;-70
2023/09/24 15:26:56;;;;;;;3.05;1.60;;;;;;;;;;5005536;28;20433;-70
2023/09/24 15:29:41;;;;;;;3.80;1.92;;;;;;;;;;5008507;28;20240;-70
2023/09/24 15:32:26;;;;;;;2.95;1.65;;;;;;;;;;5008680;28;20080;-69
2023/09/24 15:35:12;;;;;;;2.90;1.70;;;;;;;;;;5008245;28;20073;-76
2023/09/24 15:37:57;;;;;;;3.72;1.75;;;;;;;;;;5008159;28;20092;-70
2023/09/24 15:40:42;;;;;;;2.75;1.75;;;;;;;;;;5008963;28;20049;-70
2023/09/24 15:43:27;;;;;;;5.53;1.90;;;;;;;;;;5008790;28;20052;-70
2023/09/24 15:46:14;;;;;;;3.08;1.58;;;;;;;;;;4997962;28;20022;-71
2023/09/24 15:48:59;;;;;;;5.50;2.10;;;;;;;;;;5011765;28;20649;-69
2023/09/24 15:51:44;;;;;;;3.20;1.58;;;;;;;;;;5008993;28;20033;-68
2023/09/24 15:54:29;;;;;;;4.70;1.92;;;;;;;;;;5015111;28;20105;-68
2023/09/24 15:57:15;;;;;;;2.85;1.50;;;;;;;;;;5009735;28;20032;-70
2023/09/24 16:00:00;;;;;;;4.20;2.20;;;;;;;;;;5008153;28;20185;-70
2023/09/24 16:02:45;;;;;;;5.13;2.05;;;;;;;;;;5008145;28;20041;-69
2023/09/24 16:05:30;;;;;;;3.55;2.50;;;;;;;;;;4994429;28;20045;-70
2023/09/24 16:08:16;;;;;;;2.55;1.88;;;;;;;;;;5007512;28;20037;-70
2023/09/24 16:11:01;;;;;;;6.75;2.83;;;;;;;;;;5008246;28;20034;-70
2023/09/24 16:13:46;;;;;;;5.20;2.40;;;;;;;;;;5008198;28;20025;-75
2023/09/24 16:16:32;;;;;;;4.13;2.30;;;;;;;;;;4993847;28;20041;-76
2023/09/24 16:19:17;;;;;;;3.78;2.30;;;;;;;;;;4998076;28;20143;-75
2023/09/24 16:22:02;;;;;;;6.38;2.45;;;;;;;;;;5007861;28;20288;-77
2023/09/24 16:24:53;;;;;;;3.28;1.77;;;;;;;;;;5007797;28;20073;-73
2023/09/24 16:27:38;;;;;;;5.60;2.28;;;;;;;;;;4997032;28;20033;-73
2023/09/24 16:30:23;;;;;;;4.18;1.90;;;;;;;;;;5007617;28;20416;-74
2023/09/24 16:33:09;;;;;;;5.20;2.63;;;;;;;;;;5007595;28;20146;-67
2023/09/24 16:35:54;;;;;;;3.85;1.80;;;;;;;;;;5007589;28;20116;-73
2023/09/24 16:38:39;;;;;;;5.05;1.95;;;;;;;;;;5007448;28;20284;-74